sensor_id;sensor_type;location;lat;lon;timestamp;pressure;altitude;pressure_sealevel;temperature;humidity
23321;BME280;33376;51.306;4.752;2022-07-29T00:01:13;102146.19;;;17.23;100.00
23321;BME280;33376;51.306;4.752;2022-07-29T00:03:39;102143.72;;;17.20;100.00
23321;BME280;33376;51.306;4.752;2022-07-29T00:06:04;102140.75;;;17.25;100.00
23321;BME280;33376;51.306;4.752;2022-07-29T00:08:29;102141.91;;;17.21;100.00
23321;BME280;33376;51.306;4.752;2022-07-29T00:10:55;102147.06;;;17.24;100.00
23321;BME280;33376;51.306;4.752;2022-07-29T00:13:20;102137.78;;;17.15;100.00
23321;BME280;33376;51.306;4.752;2022-07-29T00:15:45;102145.38;;;17.23;100.00
23321;BME280;33376;51.306;4.752;2022-07-29T00:18:10;102151.75;;;17.20;100.00
23321;BME280;33376;51.306;4.752;2022-07-29T00:20:36;102152.16;;;17.14;100.00
23321;BME280;33376;51.306;4.752;2022-07-29T00:23:01;102156.44;;;17.17;100.00
23321;BME280;33376;51.306;4.752;2022-07-29T00:25:26;102145.81;;;17.15;100.00
23321;BME280;33376;51.306;4.752;2022-07-29T00:27:51;102145.25;;;17.10;100.00
23321;BME280;33376;51.306;4.752;2022-07-29T00:30:17;102141.03;;;17.06;100.00
23321;BME280;33376;51.306;4.752;2022-07-29T00:32:42;102131.91;;;17.09;100.00
23321;BME280;33376;51.306;4.752;2022-07-29T00:35:07;102134.53;;;17.10;100.00
23321;BME280;33376;51.306;4.752;2022-07-29T00:37:52;102131.19;;;17.07;100.00
23321;BME280;33376;51.306;4.752;2022-07-29T00:40:17;102123.88;;;17.09;100.00
23321;BME280;33376;51.306;4.752;2022-07-29T00:42:43;102120.56;;;17.05;100.00
23321;BME280;33376;51.306;4.752;2022-07-29T00:45:09;102120.47;;;17.07;100.00
23321;BME280;33376;51.306;4.752;2022-07-29T00:47:34;102126.09;;;17.02;100.00
23321;BME280;33376;51.306;4.752;2022-07-29T00:49:59;102121.78;;;17.00;100.00
23321;BME280;33376;51.306;4.752;2022-07-29T00:52:25;102116.41;;;17.00;100.00
23321;BME280;33376;51.306;4.752;2022-07-29T00:54:50;102112.81;;;17.01;100.00
23321;BME280;33376;51.306;4.752;2022-07-29T00:57:15;102119.28;;;16.97;100.00
23321;BME280;33376;51.306;4.752;2022-07-29T00:59:41;102110.66;;;17.06;100.00
23321;BME280;33376;51.306;4.752;2022-07-29T01:02:06;102110.47;;;16.95;100.00
23321;BME280;33376;51.306;4.752;2022-07-29T01:04:31;102113.53;;;16.89;100.00
23321;BME280;33376;51.306;4.752;2022-07-29T01:06:57;102114.38;;;16.75;100.00
23321;BME280;33376;51.306;4.752;2022-07-29T01:09:22;102121.72;;;16.72;100.00
23321;BME280;33376;51.306;4.752;2022-07-29T01:11:48;102121.91;;;16.69;100.00
23321;BME280;33376;51.306;4.752;2022-07-29T01:14:14;102115.09;;;16.63;100.00
23321;BME280;33376;51.306;4.752;2022-07-29T01:17:00;102134.63;;;16.65;100.00
23321;BME280;33376;51.306;4.752;2022-07-29T01:25:01;102142.50;;;16.37;100.00
23321;BME280;33376;51.306;4.752;2022-07-29T01:30:11;102140.53;;;16.25;100.00
23321;BME280;33376;51.306;4.752;2022-07-29T01:32:37;102143.31;;;16.24;100.00
23321;BME280;33376;51.306;4.752;2022-07-29T01:35:07;102147.78;;;16.23;100.00
23321;BME280;33376;51.306;4.752;2022-07-29T01:41:03;102149.72;;;16.21;100.00
23321;BME280;33376;51.306;4.752;2022-07-29T01:43:11;102149.94;;;16.17;100.00
23321;BME280;33376;51.306;4.752;2022-07-29T01:45:43;102141.31;;;16.11;100.00
23321;BME280;33376;51.306;4.752;2022-07-29T01:48:11;102152.28;;;16.07;100.00
23321;BME280;33376;51.306;4.752;2022-07-29T01:50:43;102153.50;;;16.01;100.00
23321;BME280;33376;51.306;4.752;2022-07-29T01:53:11;102135.72;;;16.00;100.00
23321;BME280;33376;51.306;4.752;2022-07-29T01:55:41;102140.97;;;16.02;100.00
23321;BME280;33376;51.306;4.752;2022-07-29T01:58:07;102143.50;;;16.05;100.00
23321;BME280;33376;51.306;4.752;2022-07-29T02:00:34;102145.56;;;16.00;100.00
23321;BME280;33376;51.306;4.752;2022-07-29T02:03:04;102151.19;;;15.95;100.00
23321;BME280;33376;51.306;4.752;2022-07-29T02:05:30;102141.59;;;15.91;100.00
23321;BME280;33376;51.306;4.752;2022-07-29T02:07:57;102138.13;;;15.89;100.00
23321;BME280;33376;51.306;4.752;2022-07-29T02:10:25;102144.53;;;15.87;100.00
23321;BME280;33376;51.306;4.752;2022-07-29T02:12:51;102142.97;;;15.83;100.00
23321;BME280;33376;51.306;4.752;2022-07-29T02:15:17;102139.53;;;15.81;100.00
23321;BME280;33376;51.306;4.752;2022-07-29T02:17:45;102137.03;;;15.78;100.00
23321;BME280;33376;51.306;4.752;2022-07-29T02:20:11;102135.03;;;15.81;100.00
23321;BME280;33376;51.306;4.752;2022-07-29T02:22:38;102142.38;;;15.78;100.00
23321;BME280;33376;51.306;4.752;2022-07-29T02:25:04;102143.47;;;15.74;100.00
23321;BME280;33376;51.306;4.752;2022-07-29T02:27:30;102139.84;;;15.75;100.00
23321;BME280;33376;51.306;4.752;2022-07-29T02:29:56;102145.38;;;15.72;100.00
23321;BME280;33376;51.306;4.752;2022-07-29T02:32:22;102133.75;;;15.73;100.00
23321;BME280;33376;51.306;4.752;2022-07-29T02:34:49;102135.72;;;15.69;100.00
23321;BME280;33376;51.306;4.752;2022-07-29T02:37:15;102144.16;;;15.62;100.00
23321;BME280;33376;51.306;4.752;2022-07-29T02:39:41;102132.84;;;15.57;100.00
23321;BME280;33376;51.306;4.752;2022-07-29T02:42:08;102133.03;;;15.54;100.00
23321;BME280;33376;51.306;4.752;2022-07-29T02:44:35;102137.50;;;15.53;100.00
23321;BME280;33376;51.306;4.752;2022-07-29T02:49:38;102139.66;;;15.47;100.00
23321;BME280;33376;51.306;4.752;2022-07-29T02:52:11;102139.81;;;15.44;100.00
23321;BME280;33376;51.306;4.752;2022-07-29T02:54:44;102144.59;;;15.37;100.00
23321;BME280;33376;51.306;4.752;2022-07-29T02:57:14;102155.53;;;15.33;100.00
23321;BME280;33376;51.306;4.752;2022-07-29T02:59:40;102149.56;;;15.28;100.00
23321;BME280;33376;51.306;4.752;2022-07-29T03:02:07;102144.38;;;15.25;100.00
23321;BME280;33376;51.306;4.752;2022-07-29T03:04:33;102145.47;;;15.21;100.00
23321;BME280;33376;51.306;4.752;2022-07-29T03:06:59;102155.34;;;15.20;100.00
23321;BME280;33376;51.306;4.752;2022-07-29T03:09:25;102148.56;;;15.13;100.00
23321;BME280;33376;51.306;4.752;2022-07-29T03:11:52;102157.00;;;15.06;100.00
23321;BME280;33376;51.306;4.752;2022-07-29T03:14:19;102167.06;;;15.01;100.00
23321;BME280;33376;51.306;4.752;2022-07-29T03:16:45;102166.88;;;15.04;100.00
23321;BME280;33376;51.306;4.752;2022-07-29T03:19:10;102153.84;;;14.98;100.00
23321;BME280;33376;51.306;4.752;2022-07-29T03:21:36;102163.13;;;14.91;100.00
23321;BME280;33376;51.306;4.752;2022-07-29T03:24:01;102167.69;;;14.89;100.00
23321;BME280;33376;51.306;4.752;2022-07-29T03:26:26;102162.50;;;14.86;100.00
23321;BME280;33376;51.306;4.752;2022-07-29T03:28:52;102169.81;;;14.82;100.00
23321;BME280;33376;51.306;4.752;2022-07-29T03:31:17;102169.09;;;14.79;100.00
23321;BME280;33376;51.306;4.752;2022-07-29T03:33:42;102179.06;;;14.75;100.00
23321;BME280;33376;51.306;4.752;2022-07-29T03:36:07;102176.41;;;14.75;100.00
23321;BME280;33376;51.306;4.752;2022-07-29T03:38:33;102180.88;;;14.75;100.00
23321;BME280;33376;51.306;4.752;2022-07-29T03:41:01;102180.94;;;14.73;100.00
23321;BME280;33376;51.306;4.752;2022-07-29T03:43:30;102175.84;;;14.68;100.00
23321;BME280;33376;51.306;4.752;2022-07-29T03:45:55;102173.34;;;14.65;100.00
23321;BME280;33376;51.306;4.752;2022-07-29T03:48:22;102174.66;;;14.57;100.00
23321;BME280;33376;51.306;4.752;2022-07-29T03:50:49;102171.69;;;14.63;100.00
23321;BME280;33376;51.306;4.752;2022-07-29T03:53:15;102168.06;;;14.64;100.00
23321;BME280;33376;51.306;4.752;2022-07-29T03:55:41;102157.56;;;14.61;100.00
23321;BME280;33376;51.306;4.752;2022-07-29T03:58:07;102162.88;;;14.61;100.00
23321;BME280;33376;51.306;4.752;2022-07-29T04:00:34;102165.78;;;14.56;100.00
23321;BME280;33376;51.306;4.752;2022-07-29T04:02:59;102167.81;;;14.51;100.00
23321;BME280;33376;51.306;4.752;2022-07-29T04:05:25;102165.41;;;14.47;100.00
23321;BME280;33376;51.306;4.752;2022-07-29T04:07:50;102159.19;;;14.46;100.00
23321;BME280;33376;51.306;4.752;2022-07-29T04:10:16;102165.53;;;14.44;100.00
23321;BME280;33376;51.306;4.752;2022-07-29T04:12:42;102165.66;;;14.41;100.00
23321;BME280;33376;51.306;4.752;2022-07-29T04:15:07;102166.84;;;14.35;100.00
23321;BME280;33376;51.306;4.752;2022-07-29T04:17:32;102171.63;;;14.29;100.00
23321;BME280;33376;51.306;4.752;2022-07-29T04:19:58;102168.16;;;14.27;100.00
23321;BME280;33376;51.306;4.752;2022-07-29T04:22:23;102165.50;;;14.27;100.00
23321;BME280;33376;51.306;4.752;2022-07-29T04:24:48;102171.03;;;14.22;100.00
23321;BME280;33376;51.306;4.752;2022-07-29T04:27:13;102179.09;;;14.21;100.00
23321;BME280;33376;51.306;4.752;2022-07-29T04:29:39;102176.34;;;14.22;100.00
23321;BME280;33376;51.306;4.752;2022-07-29T04:32:04;102180.81;;;14.22;100.00
23321;BME280;33376;51.306;4.752;2022-07-29T04:34:29;102177.19;;;14.24;100.00
23321;BME280;33376;51.306;4.752;2022-07-29T04:36:55;102175.72;;;14.17;100.00
23321;BME280;33376;51.306;4.752;2022-07-29T04:39:20;102181.69;;;14.22;100.00
23321;BME280;33376;51.306;4.752;2022-07-29T04:41:45;102181.19;;;14.33;100.00
23321;BME280;33376;51.306;4.752;2022-07-29T04:44:12;102183.88;;;14.33;100.00
23321;BME280;33376;51.306;4.752;2022-07-29T04:46:37;102198.97;;;14.34;100.00
23321;BME280;33376;51.306;4.752;2022-07-29T04:49:03;102195.19;;;14.38;100.00
23321;BME280;33376;51.306;4.752;2022-07-29T04:51:28;102202.75;;;14.47;100.00
23321;BME280;33376;51.306;4.752;2022-07-29T04:53:53;102197.66;;;14.59;100.00
23321;BME280;33376;51.306;4.752;2022-07-29T04:56:18;102197.34;;;14.65;100.00
23321;BME280;33376;51.306;4.752;2022-07-29T04:58:44;102193.97;;;14.79;100.00
23321;BME280;33376;51.306;4.752;2022-07-29T05:01:09;102190.38;;;14.80;100.00
23321;BME280;33376;51.306;4.752;2022-07-29T05:03:34;102185.44;;;14.90;100.00
23321;BME280;33376;51.306;4.752;2022-07-29T05:06:00;102192.97;;;14.99;100.00
23321;BME280;33376;51.306;4.752;2022-07-29T05:08:25;102204.69;;;14.96;100.00
23321;BME280;33376;51.306;4.752;2022-07-29T05:10:50;102200.06;;;15.00;100.00
23321;BME280;33376;51.306;4.752;2022-07-29T05:13:15;102197.38;;;15.17;100.00
23321;BME280;33376;51.306;4.752;2022-07-29T05:15:41;102199.09;;;15.18;100.00
23321;BME280;33376;51.306;4.752;2022-07-29T05:18:06;102201.38;;;15.25;100.00
23321;BME280;33376;51.306;4.752;2022-07-29T05:20:31;102199.16;;;15.16;100.00
23321;BME280;33376;51.306;4.752;2022-07-29T05:22:58;102200.59;;;15.23;100.00
23321;BME280;33376;51.306;4.752;2022-07-29T05:25:24;102197.13;;;15.21;100.00
23321;BME280;33376;51.306;4.752;2022-07-29T05:27:50;102194.59;;;15.35;100.00
23321;BME280;33376;51.306;4.752;2022-07-29T05:30:15;102198.28;;;15.50;100.00
23321;BME280;33376;51.306;4.752;2022-07-29T05:32:41;102196.34;;;15.69;100.00
23321;BME280;33376;51.306;4.752;2022-07-29T05:35:06;102187.94;;;16.07;100.00
23321;BME280;33376;51.306;4.752;2022-07-29T05:37:31;102179.91;;;16.84;100.00
23321;BME280;33376;51.306;4.752;2022-07-29T05:39:57;102155.44;;;17.62;100.00
23321;BME280;33376;51.306;4.752;2022-07-29T05:42:22;102133.41;;;18.64;100.00
23321;BME280;33376;51.306;4.752;2022-07-29T05:44:47;102113.91;;;18.87;100.00
23321;BME280;33376;51.306;4.752;2022-07-29T05:47:13;102092.63;;;19.83;100.00
23321;BME280;33376;51.306;4.752;2022-07-29T05:49:38;102069.84;;;19.76;100.00
23321;BME280;33376;51.306;4.752;2022-07-29T05:52:03;102071.78;;;19.74;100.00
23321;BME280;33376;51.306;4.752;2022-07-29T05:54:29;102064.97;;;19.33;100.00
23321;BME280;33376;51.306;4.752;2022-07-29T05:56:54;102071.72;;;19.51;100.00
23321;BME280;33376;51.306;4.752;2022-07-29T05:59:19;102089.50;;;18.78;100.00
23321;BME280;33376;51.306;4.752;2022-07-29T06:01:45;102085.97;;;19.40;100.00
23321;BME280;33376;51.306;4.752;2022-07-29T06:04:10;102076.56;;;19.94;100.00
23321;BME280;33376;51.306;4.752;2022-07-29T06:06:35;102050.50;;;21.32;100.00
23321;BME280;33376;51.306;4.752;2022-07-29T06:09:01;102014.44;;;22.29;100.00
23321;BME280;33376;51.306;4.752;2022-07-29T06:11:27;102007.59;;;21.07;100.00
23321;BME280;33376;51.306;4.752;2022-07-29T06:13:52;102031.56;;;20.20;100.00
23321;BME280;33376;51.306;4.752;2022-07-29T06:16:18;102075.78;;;19.56;100.00
23321;BME280;33376;51.306;4.752;2022-07-29T06:18:43;102084.13;;;19.28;100.00
23321;BME280;33376;51.306;4.752;2022-07-29T06:21:08;102095.13;;;19.74;100.00
23321;BME280;33376;51.306;4.752;2022-07-29T06:23:37;102078.31;;;20.19;100.00
23321;BME280;33376;51.306;4.752;2022-07-29T06:26:03;102065.50;;;20.79;100.00
23321;BME280;33376;51.306;4.752;2022-07-29T06:28:28;102046.03;;;20.65;100.00
23321;BME280;33376;51.306;4.752;2022-07-29T06:30:54;102037.13;;;21.63;100.00
23321;BME280;33376;51.306;4.752;2022-07-29T06:33:19;102017.63;;;22.34;100.00
23321;BME280;33376;51.306;4.752;2022-07-29T06:35:44;101986.31;;;22.73;100.00
23321;BME280;33376;51.306;4.752;2022-07-29T06:38:12;101972.47;;;22.66;100.00
23321;BME280;33376;51.306;4.752;2022-07-29T06:40:40;101964.34;;;22.46;100.00
23321;BME280;33376;51.306;4.752;2022-07-29T06:43:24;101979.41;;;23.20;100.00
23321;BME280;33376;51.306;4.752;2022-07-29T06:45:49;101955.66;;;24.20;100.00
23321;BME280;33376;51.306;4.752;2022-07-29T06:48:14;101921.16;;;24.03;100.00
23321;BME280;33376;51.306;4.752;2022-07-29T06:50:40;101921.38;;;23.81;100.00
23321;BME280;33376;51.306;4.752;2022-07-29T06:53:05;101958.25;;;22.94;100.00
23321;BME280;33376;51.306;4.752;2022-07-29T06:55:30;101968.69;;;22.17;100.00
23321;BME280;33376;51.306;4.752;2022-07-29T06:57:56;101990.25;;;22.59;100.00
23321;BME280;33376;51.306;4.752;2022-07-29T07:00:21;102005.94;;;21.59;100.00
23321;BME280;33376;51.306;4.752;2022-07-29T07:02:46;102037.66;;;21.02;100.00
23321;BME280;33376;51.306;4.752;2022-07-29T07:05:11;102056.59;;;20.44;100.00
23321;BME280;33376;51.306;4.752;2022-07-29T07:07:37;102085.88;;;20.01;100.00
23321;BME280;33376;51.306;4.752;2022-07-29T07:10:02;102096.66;;;20.01;100.00
23321;BME280;33376;51.306;4.752;2022-07-29T07:12:28;102107.69;;;19.37;100.00
23321;BME280;33376;51.306;4.752;2022-07-29T07:14:53;102137.78;;;18.92;100.00
23321;BME280;33376;51.306;4.752;2022-07-29T07:17:18;102134.44;;;19.14;100.00
23321;BME280;33376;51.306;4.752;2022-07-29T07:19:43;102134.09;;;20.29;100.00
23321;BME280;33376;51.306;4.752;2022-07-29T07:22:10;102094.31;;;21.24;100.00
23321;BME280;33376;51.306;4.752;2022-07-29T07:24:35;102070.31;;;22.40;100.00
23321;BME280;33376;51.306;4.752;2022-07-29T07:27:00;102014.06;;;22.95;100.00
23321;BME280;33376;51.306;4.752;2022-07-29T07:29:25;101982.09;;;23.50;100.00
23321;BME280;33376;51.306;4.752;2022-07-29T07:31:51;102028.38;;;21.71;100.00
23321;BME280;33376;51.306;4.752;2022-07-29T07:34:16;102035.50;;;21.83;100.00
23321;BME280;33376;51.306;4.752;2022-07-29T07:36:41;102034.94;;;21.24;100.00
23321;BME280;33376;51.306;4.752;2022-07-29T07:39:06;102046.34;;;21.39;100.00
23321;BME280;33376;51.306;4.752;2022-07-29T07:41:32;102040.84;;;20.96;100.00
23321;BME280;33376;51.306;4.752;2022-07-29T07:43:57;102072.75;;;20.44;100.00
23321;BME280;33376;51.306;4.752;2022-07-29T07:46:22;102090.19;;;20.16;100.00
23321;BME280;33376;51.306;4.752;2022-07-29T07:48:47;102098.03;;;20.54;100.00
23321;BME280;33376;51.306;4.752;2022-07-29T07:51:13;102070.63;;;21.61;100.00
23321;BME280;33376;51.306;4.752;2022-07-29T07:53:38;102060.94;;;21.81;100.00
23321;BME280;33376;51.306;4.752;2022-07-29T07:56:03;102023.31;;;22.72;100.00
23321;BME280;33376;51.306;4.752;2022-07-29T07:58:31;102002.25;;;23.27;100.00
23321;BME280;33376;51.306;4.752;2022-07-29T08:00:56;102003.25;;;23.84;100.00
23321;BME280;33376;51.306;4.752;2022-07-29T08:03:21;101963.31;;;23.86;100.00
23321;BME280;33376;51.306;4.752;2022-07-29T08:05:47;101969.59;;;23.77;100.00
23321;BME280;33376;51.306;4.752;2022-07-29T08:08:13;101913.69;;;26.47;100.00
23321;BME280;33376;51.306;4.752;2022-07-29T08:10:38;101894.84;;;25.67;100.00
23321;BME280;33376;51.306;4.752;2022-07-29T08:13:22;101915.31;;;25.27;100.00
23321;BME280;33376;51.306;4.752;2022-07-29T08:15:47;101842.69;;;27.50;100.00
23321;BME280;33376;51.306;4.752;2022-07-29T08:18:22;101829.22;;;26.82;100.00
23321;BME280;33376;51.306;4.752;2022-07-29T08:20:47;101887.50;;;25.60;100.00
23321;BME280;33376;51.306;4.752;2022-07-29T08:23:12;101893.06;;;25.41;100.00
23321;BME280;33376;51.306;4.752;2022-07-29T08:25:37;101883.06;;;26.96;100.00
23321;BME280;33376;51.306;4.752;2022-07-29T08:28:04;101858.88;;;26.60;100.00
23321;BME280;33376;51.306;4.752;2022-07-29T08:30:29;101849.50;;;26.29;100.00
23321;BME280;33376;51.306;4.752;2022-07-29T08:32:54;101828.22;;;27.33;100.00
23321;BME280;33376;51.306;4.752;2022-07-29T08:35:20;101835.50;;;28.29;100.00
23321;BME280;33376;51.306;4.752;2022-07-29T08:37:45;101762.00;;;30.01;100.00
23321;BME280;33376;51.306;4.752;2022-07-29T08:40:11;101699.31;;;32.04;100.00
23321;BME280;33376;51.306;4.752;2022-07-29T08:42:36;101688.59;;;30.49;100.00
23321;BME280;33376;51.306;4.752;2022-07-29T08:45:02;101684.50;;;29.94;100.00
23321;BME280;33376;51.306;4.752;2022-07-29T08:47:28;101717.19;;;28.91;100.00
23321;BME280;33376;51.306;4.752;2022-07-29T08:49:53;101775.44;;;28.76;100.00
23321;BME280;33376;51.306;4.752;2022-07-29T08:52:18;101776.91;;;28.01;100.00
23321;BME280;33376;51.306;4.752;2022-07-29T08:54:44;101820.72;;;27.59;100.00
23321;BME280;33376;51.306;4.752;2022-07-29T08:57:12;101807.50;;;27.06;100.00
23321;BME280;33376;51.306;4.752;2022-07-29T08:59:37;101797.41;;;26.83;100.00
23321;BME280;33376;51.306;4.752;2022-07-29T09:02:05;101813.56;;;27.98;100.00
23321;BME280;33376;51.306;4.752;2022-07-29T09:04:33;101807.28;;;26.84;100.00
23321;BME280;33376;51.306;4.752;2022-07-29T09:07:00;101810.22;;;26.98;100.00
23321;BME280;33376;51.306;4.752;2022-07-29T09:09:25;101783.75;;;28.05;100.00
23321;BME280;33376;51.306;4.752;2022-07-29T09:11:51;101779.44;;;29.26;100.00
23321;BME280;33376;51.306;4.752;2022-07-29T09:14:25;101744.97;;;28.72;100.00
23321;BME280;33376;51.306;4.752;2022-07-29T09:16:52;101741.44;;;29.54;100.00
23321;BME280;33376;51.306;4.752;2022-07-29T09:19:21;101702.31;;;30.70;100.00
23321;BME280;33376;51.306;4.752;2022-07-29T09:21:47;101713.50;;;29.29;100.00
23321;BME280;33376;51.306;4.752;2022-07-29T09:24:38;101768.94;;;27.67;100.00
23321;BME280;33376;51.306;4.752;2022-07-29T09:27:08;101790.78;;;26.77;100.00
23321;BME280;33376;51.306;4.752;2022-07-29T09:29:33;101784.47;;;28.37;100.00
23321;BME280;33376;51.306;4.752;2022-07-29T09:31:59;101718.94;;;30.68;100.00
23321;BME280;33376;51.306;4.752;2022-07-29T09:34:25;101812.78;;;27.08;100.00
23321;BME280;33376;51.306;4.752;2022-07-29T09:36:51;101817.09;;;26.10;100.00
23321;BME280;33376;51.306;4.752;2022-07-29T09:39:27;101771.66;;;27.27;100.00
23321;BME280;33376;51.306;4.752;2022-07-29T09:41:54;101792.09;;;27.71;100.00
23321;BME280;33376;51.306;4.752;2022-07-29T09:44:20;101780.00;;;27.34;100.00
23321;BME280;33376;51.306;4.752;2022-07-29T09:49:23;101802.53;;;26.94;100.00
23321;BME280;33376;51.306;4.752;2022-07-29T09:51:58;101791.25;;;26.39;100.00
23321;BME280;33376;51.306;4.752;2022-07-29T09:54:24;101803.84;;;27.32;100.00
23321;BME280;33376;51.306;4.752;2022-07-29T09:56:51;101784.34;;;26.94;100.00
23321;BME280;33376;51.306;4.752;2022-07-29T09:59:17;101801.75;;;26.60;100.00
23321;BME280;33376;51.306;4.752;2022-07-29T10:01:42;101855.06;;;25.41;100.00
23321;BME280;33376;51.306;4.752;2022-07-29T10:04:07;101827.66;;;25.34;100.00
23321;BME280;33376;51.306;4.752;2022-07-29T10:06:33;101814.97;;;26.21;100.00
23321;BME280;33376;51.306;4.752;2022-07-29T10:09:17;101800.72;;;26.61;100.00
23321;BME280;33376;51.306;4.752;2022-07-29T10:11:42;101808.28;;;26.16;100.00
23321;BME280;33376;51.306;4.752;2022-07-29T10:14:27;101810.63;;;26.36;100.00
23321;BME280;33376;51.306;4.752;2022-07-29T10:16:52;101788.34;;;27.32;100.00
23321;BME280;33376;51.306;4.752;2022-07-29T10:19:18;101809.69;;;26.53;100.00
23321;BME280;33376;51.306;4.752;2022-07-29T10:21:44;101819.31;;;26.40;100.00
23321;BME280;33376;51.306;4.752;2022-07-29T10:24:09;101820.16;;;25.89;100.00
23321;BME280;33376;51.306;4.752;2022-07-29T10:26:35;101822.91;;;25.71;100.00
23321;BME280;33376;51.306;4.752;2022-07-29T10:29:02;101841.50;;;25.31;100.00
23321;BME280;33376;51.306;4.752;2022-07-29T10:31:36;101824.97;;;25.77;100.00
23321;BME280;33376;51.306;4.752;2022-07-29T10:34:11;101852.38;;;25.14;100.00
23321;BME280;33376;51.306;4.752;2022-07-29T10:39:08;101836.38;;;25.11;100.00
23321;BME280;33376;51.306;4.752;2022-07-29T10:41:39;101822.81;;;25.81;100.00
23321;BME280;33376;51.306;4.752;2022-07-29T10:44:20;101808.06;;;26.35;100.00
23321;BME280;33376;51.306;4.752;2022-07-29T10:46:46;101778.91;;;26.19;100.00
23321;BME280;33376;51.306;4.752;2022-07-29T10:59:46;101765.41;;;26.69;100.00
23321;BME280;33376;51.306;4.752;2022-07-29T11:07:21;101787.53;;;25.11;100.00
23321;BME280;33376;51.306;4.752;2022-07-29T11:15:02;101752.38;;;26.13;100.00
23321;BME280;33376;51.306;4.752;2022-07-29T11:17:28;101754.34;;;26.37;100.00
23321;BME280;33376;51.306;4.752;2022-07-29T11:22:38;101691.09;;;27.08;100.00
23321;BME280;33376;51.306;4.752;2022-07-29T11:25:13;101658.91;;;27.60;100.00
23321;BME280;33376;51.306;4.752;2022-07-29T11:27:38;101694.50;;;27.02;100.00
23321;BME280;33376;51.306;4.752;2022-07-29T11:30:04;101710.72;;;27.44;100.00
23321;BME280;33376;51.306;4.752;2022-07-29T11:32:37;101699.09;;;26.94;100.00
23321;BME280;33376;51.306;4.752;2022-07-29T11:35:13;101696.13;;;26.63;100.00
23321;BME280;33376;51.306;4.752;2022-07-29T11:37:39;101678.94;;;27.91;100.00
23321;BME280;33376;51.306;4.752;2022-07-29T11:47:34;101704.66;;;28.05;100.00
23321;BME280;33376;51.306;4.752;2022-07-29T11:50:01;101656.88;;;27.46;100.00
23321;BME280;33376;51.306;4.752;2022-07-29T11:52:37;101656.84;;;28.17;100.00
23321;BME280;33376;51.306;4.752;2022-07-29T11:55:08;101659.34;;;27.80;100.00
23321;BME280;33376;51.306;4.752;2022-07-29T11:57:34;101681.44;;;28.09;100.00
23321;BME280;33376;51.306;4.752;2022-07-29T11:59:59;101652.13;;;28.11;100.00
23321;BME280;33376;51.306;4.752;2022-07-29T12:02:25;101711.50;;;27.77;100.00
23321;BME280;33376;51.306;4.752;2022-07-29T12:05:02;101671.03;;;27.42;100.00
23321;BME280;33376;51.306;4.752;2022-07-29T12:07:28;101669.41;;;27.87;100.00
23321;BME280;33376;51.306;4.752;2022-07-29T12:09:54;101663.28;;;29.08;100.00
23321;BME280;33376;51.306;4.752;2022-07-29T12:12:19;101654.50;;;28.75;100.00
23321;BME280;33376;51.306;4.752;2022-07-29T12:14:45;101686.50;;;28.58;100.00
23321;BME280;33376;51.306;4.752;2022-07-29T12:17:30;101621.41;;;28.17;100.00
23321;BME280;33376;51.306;4.752;2022-07-29T12:19:56;101661.09;;;27.73;100.00
23321;BME280;33376;51.306;4.752;2022-07-29T12:22:29;101667.97;;;27.37;100.00
23321;BME280;33376;51.306;4.752;2022-07-29T12:24:54;101640.44;;;27.78;100.00
23321;BME280;33376;51.306;4.752;2022-07-29T12:27:20;101641.72;;;28.45;100.00
23321;BME280;33376;51.306;4.752;2022-07-29T12:29:58;101643.22;;;28.47;100.00
23321;BME280;33376;51.306;4.752;2022-07-29T12:32:35;101648.06;;;27.99;100.00
23321;BME280;33376;51.306;4.752;2022-07-29T12:35:04;101659.63;;;28.09;100.00
23321;BME280;33376;51.306;4.752;2022-07-29T12:37:31;101648.59;;;27.94;100.00
23321;BME280;33376;51.306;4.752;2022-07-29T12:39:57;101679.03;;;27.27;100.00
23321;BME280;33376;51.306;4.752;2022-07-29T12:42:22;101685.69;;;26.43;100.00
23321;BME280;33376;51.306;4.752;2022-07-29T12:44:48;101706.03;;;26.64;100.00
23321;BME280;33376;51.306;4.752;2022-07-29T12:47:14;101693.91;;;26.59;100.00
23321;BME280;33376;51.306;4.752;2022-07-29T12:49:40;101688.38;;;27.08;100.00
23321;BME280;33376;51.306;4.752;2022-07-29T12:54:50;101674.25;;;26.89;100.00
23321;BME280;33376;51.306;4.752;2022-07-29T12:57:16;101675.97;;;27.06;100.00
23321;BME280;33376;51.306;4.752;2022-07-29T12:59:41;101673.22;;;27.46;100.00
23321;BME280;33376;51.306;4.752;2022-07-29T13:02:06;101651.59;;;27.45;100.00
23321;BME280;33376;51.306;4.752;2022-07-29T13:04:32;101662.00;;;27.09;100.00
23321;BME280;33376;51.306;4.752;2022-07-29T13:06:59;101709.88;;;26.12;100.00
23321;BME280;33376;51.306;4.752;2022-07-29T13:09:35;101700.47;;;26.90;100.00
23321;BME280;33376;51.306;4.752;2022-07-29T13:12:00;101672.03;;;27.16;100.00
23321;BME280;33376;51.306;4.752;2022-07-29T13:14:34;101641.91;;;27.18;100.00
23321;BME280;33376;51.306;4.752;2022-07-29T13:17:16;101636.66;;;26.92;100.00
23321;BME280;33376;51.306;4.752;2022-07-29T13:19:42;101650.78;;;27.99;100.00
23321;BME280;33376;51.306;4.752;2022-07-29T13:22:12;101635.78;;;27.32;100.00
23321;BME280;33376;51.306;4.752;2022-07-29T13:24:50;101643.66;;;26.87;100.00
23321;BME280;33376;51.306;4.752;2022-07-29T13:27:17;101674.16;;;28.01;100.00
23321;BME280;33376;51.306;4.752;2022-07-29T13:29:43;101665.38;;;27.59;100.00
23321;BME280;33376;51.306;4.752;2022-07-29T13:32:08;101685.84;;;27.47;100.00